Time;durP1;ratioP1;P1;durP2;ratioP2;P2;SDS_P1;SDS_P2;PMS_P1;PMS_P2;Temp;Humidity;BMP_temperature;BMP_pressure;BME280_temperature;BME280_humidity;BME280_pressure;Samples;Min_cycle;Max_cycle;Signal;HPM_P1;HPM_P2
2022/01/26 00:00:58;;;;;;;16.87;7.87;;;3.60;99.90;;;;;;5065972;28;20194;-71
2022/01/26 00:06:19;;;;;;;14.77;6.87;;;3.50;99.90;;;;;;5054561;28;20214;-71
2022/01/26 00:08:46;;;;;;;14.00;6.37;;;3.60;99.90;;;;;;5058895;28;20271;-71
2022/01/26 00:11:12;;;;;;;14.57;6.67;;;3.50;99.90;;;;;;5068009;28;20213;-71
2022/01/26 00:13:39;;;;;;;13.23;6.80;;;3.50;99.90;;;;;;5063745;28;20258;-71
2022/01/26 00:16:11;;;;;;;13.77;5.93;;;3.50;99.90;;;;;;5075794;28;20213;-71
2022/01/26 00:18:38;;;;;;;14.13;6.53;;;3.50;99.90;;;;;;5062401;28;20233;-71
2022/01/26 00:21:12;;;;;;;17.10;6.83;;;3.50;99.90;;;;;;5063066;28;20194;-71
2022/01/26 00:26:12;;;;;;;16.03;6.93;;;3.40;99.90;;;;;;5062773;28;20282;-71
2022/01/26 00:28:59;;;;;;;16.13;6.47;;;3.50;99.90;;;;;;5062547;28;20599;-71
2022/01/26 00:39:41;;;;;;;15.70;6.87;;;3.40;99.90;;;;;;5066151;28;20201;-71
2022/01/26 00:42:08;;;;;;;12.40;6.47;;;3.40;99.90;;;;;;5064453;28;20206;-71
2022/01/26 00:44:43;;;;;;;18.40;7.50;;;3.40;99.90;;;;;;5057039;28;20371;-71
2022/01/26 00:47:10;;;;;;;17.53;7.23;;;3.30;99.90;;;;;;5061652;28;20434;-71
2022/01/26 00:49:37;;;;;;;16.27;7.30;;;3.30;99.90;;;;;;5066677;28;20266;-71
2022/01/26 00:52:06;;;;;;;16.17;7.43;;;3.30;99.90;;;;;;5064502;28;20543;-71
2022/01/26 00:54:34;;;;;;;20.93;8.53;;;3.20;99.90;;;;;;5067842;28;20652;-71
2022/01/26 00:57:01;;;;;;;19.97;8.27;;;3.30;99.90;;;;;;5064989;28;20197;-71
2022/01/26 00:59:28;;;;;;;17.70;7.77;;;3.20;99.90;;;;;;5055358;28;20205;-71
2022/01/26 01:01:56;;;;;;;16.77;8.60;;;3.20;99.90;;;;;;5062387;28;20584;-71
2022/01/26 01:04:23;;;;;;;19.93;8.63;;;3.30;99.90;;;;;;5062016;28;20222;-71
2022/01/26 01:06:56;;;;;;;17.57;8.10;;;3.20;99.90;;;;;;5064662;28;20201;-71
2022/01/26 01:09:24;;;;;;;15.53;7.93;;;3.20;99.90;;;;;;5056870;28;20206;-71
2022/01/26 01:11:55;;;;;;;18.80;8.17;;;3.40;99.90;;;;;;5075133;28;20232;-71
2022/01/26 01:14:23;;;;;;;21.27;8.23;;;3.40;99.90;;;;;;5063874;28;20629;-71
2022/01/26 01:16:52;;;;;;;18.33;8.20;;;3.30;99.90;;;;;;5064627;28;20212;-71
2022/01/26 01:19:35;;;;;;;19.27;7.57;;;3.30;99.90;;;;;;5066150;28;20190;-71
2022/01/26 01:22:23;;;;;;;20.87;9.03;;;3.30;99.90;;;;;;5063585;28;20964;-71
2022/01/26 01:33:47;;;;;;;20.73;8.40;;;3.20;99.90;;;;;;5036746;28;20198;-70
2022/01/26 01:35:43;;;;;;;17.33;8.23;;;3.20;99.90;;;;;;5047873;28;20194;-71
2022/01/26 01:38:16;;;;;;;15.80;7.87;;;3.20;99.90;;;;;;5066578;28;20208;-70
2022/01/26 01:40:46;;;;;;;15.70;7.77;;;3.20;99.90;;;;;;5064061;28;20194;-70
2022/01/26 01:43:14;;;;;;;17.33;7.77;;;3.20;99.90;;;;;;5054950;28;20210;-71
2022/01/26 01:45:49;;;;;;;15.87;7.70;;;3.20;99.90;;;;;;5063512;28;20205;-69
2022/01/26 01:48:23;;;;;;;17.03;8.17;;;3.20;99.90;;;;;;5065733;28;20287;-69
2022/01/26 01:50:51;;;;;;;16.97;8.13;;;3.20;99.90;;;;;;5081003;28;20240;-68
2022/01/26 01:53:19;;;;;;;21.73;8.07;;;3.20;99.90;;;;;;5057743;28;20194;-69
2022/01/26 01:55:49;;;;;;;21.23;8.60;;;3.20;99.90;;;;;;5064640;28;20198;-70
2022/01/26 01:58:18;;;;;;;19.40;8.17;;;3.20;99.90;;;;;;5064217;28;20201;-71
2022/01/26 02:00:45;;;;;;;19.40;7.93;;;3.20;99.90;;;;;;5065372;28;20190;-71
2022/01/26 02:03:12;;;;;;;16.70;7.80;;;3.20;99.90;;;;;;5058059;28;20202;-71
2022/01/26 02:05:38;;;;;;;19.43;8.37;;;3.20;99.90;;;;;;5057892;28;20198;-71
2022/01/26 02:08:05;;;;;;;22.53;9.30;;;3.20;99.90;;;;;;5069610;28;20194;-70
2022/01/26 02:10:33;;;;;;;18.23;8.30;;;3.20;99.90;;;;;;5062162;28;20432;-70
2022/01/26 02:13:06;;;;;;;19.37;9.13;;;3.10;99.90;;;;;;5057703;28;20194;-71
2022/01/26 02:15:43;;;;;;;18.10;8.13;;;3.20;99.90;;;;;;5063780;28;20265;-71
2022/01/26 02:18:30;;;;;;;18.37;8.10;;;3.10;99.90;;;;;;5064433;28;20202;-70
2022/01/26 02:21:23;;;;;;;18.60;7.60;;;3.10;99.90;;;;;;5070697;28;20649;-71
2022/01/26 02:54:35;;;;;;;18.77;7.77;;;3.00;99.90;;;;;;5061582;28;20226;-70
2022/01/26 02:57:26;;;;;;;20.37;7.83;;;3.00;99.90;;;;;;5063548;28;20197;-70
2022/01/26 03:05:00;;;;;;;18.97;8.97;;;3.00;99.90;;;;;;5063081;28;20418;-70
2022/01/26 03:07:39;;;;;;;16.20;7.50;;;2.80;99.90;;;;;;5064644;28;20273;-71
2022/01/26 03:10:33;;;;;;;16.00;7.17;;;2.80;99.90;;;;;;5059952;28;20593;-71
2022/01/26 03:13:09;;;;;;;17.93;6.83;;;2.90;99.90;;;;;;5067050;28;20198;-70
2022/01/26 03:15:47;;;;;;;16.57;7.23;;;2.80;99.90;;;;;;5066318;28;20214;-70
2022/01/26 03:21:03;;;;;;;15.53;7.27;;;2.80;99.90;;;;;;5069611;28;20205;-71
2022/01/26 03:29:13;;;;;;;18.00;7.87;;;2.80;99.90;;;;;;5067071;28;20201;-71
2022/01/26 03:36:44;;;;;;;19.73;7.40;;;2.70;99.90;;;;;;5064724;28;20685;-71
2022/01/26 03:39:13;;;;;;;17.70;7.33;;;2.70;99.90;;;;;;5064207;28;20197;-70
2022/01/26 03:41:44;;;;;;;16.40;6.83;;;2.70;99.90;;;;;;5064424;28;20217;-71
2022/01/26 03:44:11;;;;;;;16.33;7.23;;;2.70;99.90;;;;;;5067834;28;20230;-71
2022/01/26 03:46:40;;;;;;;20.07;7.50;;;2.80;99.90;;;;;;5066561;28;20283;-70
2022/01/26 03:49:08;;;;;;;15.47;7.10;;;2.70;99.90;;;;;;5062647;28;20619;-70
2022/01/26 03:51:35;;;;;;;17.83;7.20;;;2.70;99.90;;;;;;5060939;28;20242;-71
2022/01/26 03:54:03;;;;;;;18.73;7.03;;;2.80;99.90;;;;;;5067131;28;20213;-71
2022/01/26 03:56:30;;;;;;;13.40;6.60;;;2.80;99.90;;;;;;5066937;28;20222;-71
2022/01/26 03:58:57;;;;;;;16.43;7.20;;;2.70;99.90;;;;;;5067555;28;20194;-71
2022/01/26 04:01:24;;;;;;;18.67;7.70;;;2.70;99.90;;;;;;5063450;28;20206;-72
2022/01/26 04:03:51;;;;;;;19.33;8.03;;;2.70;99.90;;;;;;5064383;28;20308;-71
2022/01/26 04:06:19;;;;;;;17.93;7.20;;;2.70;99.90;;;;;;5061907;28;20247;-69
2022/01/26 04:08:46;;;;;;;19.20;8.17;;;2.70;99.90;;;;;;5065255;28;20205;-69
2022/01/26 04:13:47;;;;;;;21.80;7.80;;;2.70;99.90;;;;;;5065616;28;20244;-69
2022/01/26 04:16:13;;;;;;;18.13;7.83;;;2.80;99.90;;;;;;5066999;28;20194;-69
2022/01/26 04:18:41;;;;;;;17.93;8.37;;;2.80;99.90;;;;;;5059082;28;20288;-70
2022/01/26 04:24:16;;;;;;;18.80;8.57;;;2.90;99.90;;;;;;5064056;28;20222;-69
2022/01/26 04:26:38;;;;;;;20.20;9.07;;;2.90;99.90;;;;;;5061934;28;20194;-69
2022/01/26 04:29:10;;;;;;;21.63;8.53;;;3.00;99.90;;;;;;5058569;28;20587;-69
2022/01/26 04:31:37;;;;;;;20.03;8.50;;;3.00;99.90;;;;;;5068972;28;20275;-70
2022/01/26 04:34:04;;;;;;;18.07;8.30;;;3.00;99.90;;;;;;5066316;28;20213;-68
2022/01/26 04:36:43;;;;;;;24.10;9.57;;;3.00;99.90;;;;;;5065921;28;20186;-69
2022/01/26 04:39:15;;;;;;;22.10;9.27;;;3.00;99.90;;;;;;5067156;28;20205;-70
2022/01/26 04:41:51;;;;;;;21.73;9.70;;;3.00;99.90;;;;;;5067833;28;20202;-70
2022/01/26 04:44:24;;;;;;;20.73;9.43;;;3.00;99.90;;;;;;5059420;28;20719;-71
2022/01/26 04:46:52;;;;;;;21.70;8.87;;;3.10;99.90;;;;;;5056574;28;20205;-70
2022/01/26 04:49:19;;;;;;;21.87;9.17;;;3.10;99.90;;;;;;5068582;28;20198;-70
2022/01/26 04:51:46;;;;;;;20.90;9.20;;;3.20;99.90;;;;;;5062955;28;20338;-70
2022/01/26 04:54:13;;;;;;;19.43;8.87;;;3.30;99.90;;;;;;5063202;28;20210;-71
2022/01/26 04:56:40;;;;;;;20.23;9.40;;;3.30;99.90;;;;;;5066582;28;20209;-69
2022/01/26 04:59:07;;;;;;;20.87;8.53;;;3.20;99.90;;;;;;5066419;28;20198;-70
2022/01/26 05:01:33;;;;;;;20.60;8.93;;;3.10;99.90;;;;;;5067156;28;20680;-70
2022/01/26 05:04:00;;;;;;;20.17;8.67;;;3.20;99.90;;;;;;5068442;28;20233;-71
2022/01/26 05:06:27;;;;;;;18.17;8.93;;;3.20;99.90;;;;;;5070312;28;20533;-70
2022/01/26 05:08:54;;;;;;;20.03;8.80;;;3.10;99.90;;;;;;5065998;28;20475;-70
2022/01/26 05:11:33;;;;;;;17.77;8.33;;;3.10;99.90;;;;;;5065382;28;20217;-70
2022/01/26 05:14:00;;;;;;;17.73;8.87;;;3.10;99.90;;;;;;5066972;28;20251;-70
2022/01/26 05:16:28;;;;;;;18.73;8.33;;;3.00;99.90;;;;;;5068857;28;20222;-70
2022/01/26 05:18:55;;;;;;;20.57;9.70;;;3.10;99.90;;;;;;5067271;28;20220;-70
2022/01/26 05:21:23;;;;;;;19.43;8.87;;;3.10;99.90;;;;;;5068139;28;20194;-70
2022/01/26 05:23:50;;;;;;;19.00;7.87;;;3.10;99.90;;;;;;5068450;28;20218;-70
2022/01/26 05:26:17;;;;;;;19.27;9.00;;;3.20;99.90;;;;;;5068568;28;20190;-70
2022/01/26 05:28:44;;;;;;;19.20;8.77;;;3.30;99.90;;;;;;5068260;28;20656;-70
2022/01/26 05:31:11;;;;;;;21.17;8.97;;;3.20;99.90;;;;;;5066776;28;20313;-70
2022/01/26 05:33:38;;;;;;;18.90;9.13;;;3.20;99.90;;;;;;5066425;28;20217;-70
2022/01/26 05:36:05;;;;;;;15.43;7.50;;;3.20;99.90;;;;;;5066978;28;20186;-70
2022/01/26 05:38:31;;;;;;;16.67;7.87;;;3.20;99.90;;;;;;5067404;28;20190;-70
2022/01/26 05:41:01;;;;;;;18.30;8.53;;;3.30;99.90;;;;;;5068649;28;20191;-70
2022/01/26 05:43:34;;;;;;;18.83;8.97;;;3.40;99.90;;;;;;5068416;28;20203;-70
2022/01/26 05:46:10;;;;;;;14.70;7.43;;;3.40;99.90;;;;;;5067401;28;20669;-70
2022/01/26 05:48:44;;;;;;;16.07;7.57;;;3.40;99.90;;;;;;5067932;28;20560;-70
2022/01/26 05:51:13;;;;;;;16.87;8.27;;;3.40;99.90;;;;;;5067667;28;20223;-70
2022/01/26 05:53:40;;;;;;;16.70;8.20;;;3.40;99.90;;;;;;5050485;28;20302;-70
2022/01/26 05:56:08;;;;;;;17.93;8.30;;;3.40;99.90;;;;;;5062634;28;20194;-70
2022/01/26 05:58:35;;;;;;;16.20;8.10;;;3.40;99.90;;;;;;5069577;28;20217;-70
2022/01/26 06:01:03;;;;;;;16.33;7.50;;;3.40;99.90;;;;;;5070493;28;20262;-70
2022/01/26 06:03:30;;;;;;;13.30;7.23;;;3.40;99.90;;;;;;5070526;28;20272;-70
2022/01/26 06:05:58;;;;;;;15.60;8.07;;;3.40;99.90;;;;;;5072807;28;20198;-70
2022/01/26 06:08:25;;;;;;;17.83;8.77;;;3.60;99.90;;;;;;5070768;28;20205;-70
2022/01/26 06:10:55;;;;;;;16.00;8.20;;;3.60;99.90;;;;;;5070486;28;20210;-70
2022/01/26 06:13:22;;;;;;;17.93;8.03;;;3.30;99.90;;;;;;5072172;28;20195;-70
2022/01/26 06:15:48;;;;;;;17.53;7.67;;;3.20;99.90;;;;;;5071795;28;20761;-70
2022/01/26 06:18:15;;;;;;;17.27;7.87;;;3.30;99.90;;;;;;5071968;28;20195;-70
2022/01/26 06:20:42;;;;;;;16.63;8.10;;;3.20;99.90;;;;;;5069627;28;20197;-67
2022/01/26 06:23:08;;;;;;;16.07;7.23;;;3.20;99.90;;;;;;5067713;28;20336;-68
2022/01/26 06:25:35;;;;;;;14.03;7.17;;;3.20;99.90;;;;;;5071355;28;20257;-68
2022/01/26 06:28:07;;;;;;;16.70;7.63;;;3.30;99.90;;;;;;5065461;28;20202;-68
2022/01/26 06:30:34;;;;;;;11.93;6.40;;;3.20;99.90;;;;;;5071288;28;20641;-68
2022/01/26 06:33:01;;;;;;;14.50;6.97;;;3.30;99.90;;;;;;5071631;28;20201;-68
2022/01/26 06:35:28;;;;;;;14.90;7.23;;;3.30;99.90;;;;;;5071648;28;20719;-68
2022/01/26 06:37:55;;;;;;;14.43;7.00;;;3.30;99.90;;;;;;5069010;28;20215;-68
2022/01/26 06:40:24;;;;;;;13.47;6.87;;;3.40;99.90;;;;;;5070224;28;20214;-68
2022/01/26 06:42:54;;;;;;;13.90;6.57;;;3.40;99.90;;;;;;5069972;28;20215;-70
2022/01/26 06:45:25;;;;;;;16.27;7.00;;;3.40;99.90;;;;;;5068413;28;20226;-71
2022/01/26 06:50:22;;;;;;;12.93;7.03;;;3.30;99.90;;;;;;5067152;28;20202;-70
2022/01/26 06:52:48;;;;;;;13.40;6.50;;;3.20;99.90;;;;;;5073540;28;20209;-70
2022/01/26 06:55:19;;;;;;;10.37;6.20;;;3.20;99.90;;;;;;5071239;28;20225;-70
2022/01/26 06:57:46;;;;;;;12.73;5.80;;;3.30;99.90;;;;;;5084946;28;20222;-70
2022/01/26 07:00:13;;;;;;;9.77;5.40;;;3.30;99.90;;;;;;5070079;28;20197;-70
2022/01/26 07:02:40;;;;;;;10.90;5.40;;;3.30;99.90;;;;;;5069509;28;20251;-71
2022/01/26 07:05:08;;;;;;;9.23;5.20;;;3.30;99.90;;;;;;5070435;28;20221;-70
2022/01/26 07:07:36;;;;;;;10.00;4.67;;;3.30;99.90;;;;;;5076233;28;20204;-70
2022/01/26 07:10:04;;;;;;;8.90;4.40;;;3.20;99.90;;;;;;5063736;28;20536;-71
2022/01/26 07:12:31;;;;;;;8.47;5.10;;;3.20;99.90;;;;;;5064519;28;20631;-70
2022/01/26 07:22:59;;;;;;;8.23;4.57;;;3.30;99.90;;;;;;5059788;28;20202;-71
2022/01/26 07:25:25;;;;;;;7.60;4.67;;;3.30;99.90;;;;;;5064250;28;20218;-71
2022/01/26 07:27:52;;;;;;;8.40;4.67;;;3.30;99.90;;;;;;5059413;28;20206;-70
2022/01/26 07:30:19;;;;;;;7.37;4.13;;;3.40;99.90;;;;;;5066404;28;20202;-70
2022/01/26 07:32:46;;;;;;;8.60;4.00;;;3.50;99.90;;;;;;5059719;28;21562;-71
2022/01/26 07:35:12;;;;;;;7.80;4.40;;;3.50;99.90;;;;;;5065812;28;20218;-70
2022/01/26 07:37:39;;;;;;;7.03;4.00;;;3.40;99.90;;;;;;5065203;28;20228;-70
2022/01/26 07:40:07;;;;;;;11.83;4.67;;;3.30;99.90;;;;;;5064556;28;20201;-70
2022/01/26 07:42:35;;;;;;;6.97;4.00;;;3.30;99.90;;;;;;5060061;28;20481;-71
2022/01/26 07:45:08;;;;;;;7.77;4.60;;;3.30;99.90;;;;;;5062801;28;20222;-70
2022/01/26 07:47:36;;;;;;;7.87;4.60;;;3.30;99.90;;;;;;5058555;28;20217;-70
2022/01/26 07:50:08;;;;;;;9.40;4.80;;;3.20;99.90;;;;;;5058564;28;20202;-71
2022/01/26 07:52:39;;;;;;;9.57;4.43;;;3.30;99.90;;;;;;5065566;28;20684;-72
2022/01/26 07:55:08;;;;;;;8.23;4.13;;;3.30;99.90;;;;;;5057336;28;20222;-69
2022/01/26 07:57:35;;;;;;;7.27;4.20;;;3.50;99.90;;;;;;5058020;28;20210;-71
2022/01/26 08:00:04;;;;;;;8.43;4.23;;;3.50;99.90;;;;;;5059367;28;20213;-71
2022/01/26 08:02:31;;;;;;;8.73;4.27;;;3.50;99.90;;;;;;5060065;28;20214;-70
2022/01/26 08:04:58;;;;;;;8.23;4.40;;;3.60;99.90;;;;;;5064915;28;20291;-70
2022/01/26 08:07:24;;;;;;;9.10;4.40;;;3.60;99.90;;;;;;5078928;28;20194;-70
2022/01/26 08:09:51;;;;;;;8.80;4.90;;;3.70;99.90;;;;;;5060682;28;20201;-69
2022/01/26 08:12:18;;;;;;;8.73;4.97;;;3.90;99.90;;;;;;5067804;28;20218;-70
2022/01/26 08:14:45;;;;;;;8.33;4.23;;;4.00;99.90;;;;;;5064137;28;20693;-69
2022/01/26 08:17:14;;;;;;;8.90;4.87;;;3.70;99.90;;;;;;5067132;28;20300;-71
2022/01/26 08:19:42;;;;;;;8.20;4.77;;;3.70;99.90;;;;;;5060587;28;20652;-72
2022/01/26 08:22:08;;;;;;;10.43;5.30;;;3.60;99.90;;;;;;5062755;28;20653;-71
2022/01/26 08:24:37;;;;;;;8.83;5.10;;;3.60;99.90;;;;;;5062853;28;20216;-70
2022/01/26 08:27:09;;;;;;;9.20;5.40;;;3.50;99.90;;;;;;5054117;28;20248;-71
2022/01/26 08:29:41;;;;;;;11.23;5.40;;;3.60;99.90;;;;;;5049547;28;20256;-71
2022/01/26 08:32:08;;;;;;;9.53;5.67;;;3.70;99.90;;;;;;5059960;28;20637;-71
2022/01/26 08:34:35;;;;;;;8.87;5.07;;;3.70;99.90;;;;;;5062410;28;20214;-69
2022/01/26 08:37:03;;;;;;;10.07;5.43;;;3.80;99.90;;;;;;5064129;28;20198;-69
2022/01/26 08:39:30;;;;;;;9.67;5.57;;;3.80;99.90;;;;;;5060786;28;20229;-69
2022/01/26 08:41:57;;;;;;;11.53;6.23;;;3.80;99.90;;;;;;5067456;28;20194;-68
2022/01/26 08:44:24;;;;;;;10.20;6.10;;;3.70;99.90;;;;;;5064394;28;20236;-70
2022/01/26 08:46:51;;;;;;;12.53;6.70;;;3.70;99.90;;;;;;5074109;28;20218;-69
2022/01/26 08:49:18;;;;;;;11.63;6.10;;;3.80;99.90;;;;;;5061880;28;20585;-70
2022/01/26 08:51:48;;;;;;;13.17;6.43;;;3.90;99.90;;;;;;5066207;28;20221;-68
2022/01/26 08:54:16;;;;;;;9.93;5.87;;;4.00;99.90;;;;;;5065025;28;20220;-68
2022/01/26 08:56:44;;;;;;;12.63;6.50;;;4.00;99.90;;;;;;5059056;28;20190;-68
2022/01/26 08:59:10;;;;;;;14.30;6.20;;;4.00;99.90;;;;;;5058089;28;20209;-70
2022/01/26 09:01:37;;;;;;;11.40;6.43;;;4.00;99.90;;;;;;5073047;28;20208;-69
2022/01/26 09:04:05;;;;;;;10.90;6.50;;;4.00;99.90;;;;;;5062147;28;20215;-70
2022/01/26 09:06:33;;;;;;;13.03;6.20;;;4.00;99.90;;;;;;5056842;28;20221;-69
2022/01/26 09:09:06;;;;;;;9.10;5.60;;;4.00;99.90;;;;;;5064015;28;20890;-70
2022/01/26 09:11:36;;;;;;;8.80;5.40;;;4.10;99.90;;;;;;5062802;28;20611;-71
2022/01/26 09:14:08;;;;;;;12.50;5.70;;;4.10;99.90;;;;;;5056488;28;20211;-72
2022/01/26 09:16:35;;;;;;;14.03;6.43;;;4.10;99.90;;;;;;5057328;28;20199;-69
2022/01/26 09:19:11;;;;;;;11.40;6.13;;;4.20;99.90;;;;;;5065108;28;20212;-71
2022/01/26 09:21:39;;;;;;;9.53;5.13;;;4.20;99.90;;;;;;5062299;28;20202;-71
2022/01/26 09:24:06;;;;;;;11.40;6.40;;;4.20;99.90;;;;;;5064151;28;20235;-72
2022/01/26 09:26:32;;;;;;;9.47;5.50;;;4.20;99.90;;;;;;5062672;28;20190;-72
2022/01/26 09:28:59;;;;;;;10.57;5.80;;;4.30;99.90;;;;;;5057094;28;20242;-71
2022/01/26 09:31:25;;;;;;;8.47;5.47;;;4.30;99.90;;;;;;5050264;28;20210;-72
2022/01/26 09:33:53;;;;;;;9.83;5.50;;;4.30;99.90;;;;;;5063164;28;20258;-71
2022/01/26 09:36:19;;;;;;;10.80;6.20;;;4.20;99.90;;;;;;5065581;28;20222;-73
2022/01/26 09:38:46;;;;;;;11.13;6.10;;;4.10;99.90;;;;;;5061507;28;20245;-69
2022/01/26 09:41:13;;;;;;;11.07;5.80;;;4.10;99.90;;;;;;5051935;28;20194;-71
2022/01/26 09:43:42;;;;;;;10.40;6.30;;;4.10;99.90;;;;;;5064597;28;20288;-71
2022/01/26 09:46:12;;;;;;;11.13;5.90;;;4.20;99.90;;;;;;5071643;28;20199;-69
2022/01/26 09:48:39;;;;;;;9.77;5.30;;;4.30;99.90;;;;;;5063754;28;20192;-70
2022/01/26 09:51:06;;;;;;;10.63;5.93;;;4.20;99.90;;;;;;5060341;28;20846;-71
2022/01/26 09:53:35;;;;;;;8.83;5.20;;;4.30;99.90;;;;;;5061909;28;21684;-71
2022/01/26 09:56:02;;;;;;;9.80;5.60;;;4.30;99.90;;;;;;5069308;28;20196;-69
2022/01/26 09:58:29;;;;;;;8.90;5.43;;;4.40;99.90;;;;;;5059293;28;20200;-70
2022/01/26 10:01:00;;;;;;;13.00;5.53;;;4.60;99.90;;;;;;5064570;28;20508;-71
2022/01/26 10:03:32;;;;;;;9.00;4.90;;;4.50;99.90;;;;;;5061171;28;20205;-69
2022/01/26 10:05:59;;;;;;;10.07;4.87;;;4.50;99.90;;;;;;5064462;28;20611;-69
2022/01/26 10:15:28;;;;;;;9.83;5.10;;;4.50;99.90;;;;;;5058394;28;20196;-68
2022/01/26 10:19:27;;;;;;;9.53;5.20;;;4.20;99.90;;;;;;5059370;28;20271;-71
2022/01/26 10:21:53;;;;;;;10.27;5.47;;;4.20;99.90;;;;;;5073932;28;20193;-72
2022/01/26 10:24:28;;;;;;;12.37;5.70;;;4.20;99.90;;;;;;5064011;28;20682;-70
2022/01/26 10:26:59;;;;;;;8.73;5.20;;;4.30;99.90;;;;;;5062430;28;20196;-68
2022/01/26 10:29:29;;;;;;;10.77;5.73;;;4.40;99.90;;;;;;5063682;28;20207;-70
2022/01/26 10:31:56;;;;;;;10.90;5.37;;;4.30;99.90;;;;;;5058616;28;20200;-72
2022/01/26 10:34:23;;;;;;;9.67;5.93;;;4.30;99.90;;;;;;5063670;28;20215;-70
2022/01/26 10:36:57;;;;;;;9.70;5.37;;;4.50;99.90;;;;;;5066718;28;20195;-70
2022/01/26 10:39:37;;;;;;;12.37;6.00;;;4.30;99.90;;;;;;5057730;28;20263;-73
2022/01/26 10:42:13;;;;;;;12.33;6.10;;;4.40;99.90;;;;;;5070145;28;20439;-71
2022/01/26 10:45:06;;;;;;;12.47;6.67;;;4.40;99.90;;;;;;5062148;28;20309;-70
2022/01/26 10:47:39;;;;;;;12.83;6.53;;;4.50;99.90;;;;;;5064254;28;20202;-71
2022/01/26 10:53:26;;;;;;;11.53;5.63;;;4.30;99.90;;;;;;5021691;28;20658;-74
2022/01/26 10:55:53;;;;;;;10.53;6.27;;;4.10;99.90;;;;;;5061136;28;20201;-70
2022/01/26 10:58:21;;;;;;;9.53;5.40;;;4.00;99.90;;;;;;5065395;28;20191;-72
2022/01/26 11:00:48;;;;;;;11.27;6.10;;;4.00;99.90;;;;;;5051809;28;20469;-73
2022/01/26 11:03:14;;;;;;;11.97;5.97;;;4.10;99.90;;;;;;5061450;28;20285;-71
2022/01/26 11:05:41;;;;;;;12.80;6.13;;;4.20;99.90;;;;;;5058968;28;20601;-75
2022/01/26 11:08:09;;;;;;;11.50;6.03;;;4.20;99.90;;;;;;5062108;28;20199;-70
2022/01/26 11:10:38;;;;;;;11.63;5.87;;;4.20;99.90;;;;;;5059872;28;20282;-71
2022/01/26 11:13:07;;;;;;;10.63;5.87;;;4.20;99.90;;;;;;5069351;28;20563;-70
2022/01/26 11:15:34;;;;;;;11.97;6.20;;;4.30;99.90;;;;;;5064429;28;20226;-70
2022/01/26 11:18:10;;;;;;;12.90;6.10;;;4.10;99.90;;;;;;5069629;28;20202;-70
2022/01/26 11:20:48;;;;;;;12.83;6.17;;;4.10;99.90;;;;;;5062675;28;20652;-69
2022/01/26 11:23:36;;;;;;;13.63;6.40;;;4.20;99.90;;;;;;5066561;28;20202;-68
2022/01/26 11:26:03;;;;;;;11.27;6.40;;;4.40;99.90;;;;;;5061419;28;20214;-69
2022/01/26 11:28:30;;;;;;;13.13;6.43;;;4.40;99.90;;;;;;5062153;28;20197;-69
2022/01/26 11:31:03;;;;;;;13.57;6.40;;;4.30;99.90;;;;;;5064505;28;20190;-70
2022/01/26 11:33:34;;;;;;;12.13;6.00;;;4.40;99.90;;;;;;5058488;28;20643;-73
2022/01/26 11:36:01;;;;;;;11.67;6.77;;;4.30;99.90;;;;;;5065680;28;20194;-72
2022/01/26 11:39:03;;;;;;;11.80;6.57;;;4.40;99.90;;;;;;5066084;28;20200;-72
2022/01/26 11:46:58;;;;;;;12.63;6.10;;;4.50;99.90;;;;;;5068303;28;20250;-68
2022/01/26 11:49:36;;;;;;;12.77;6.00;;;4.50;99.90;;;;;;5055974;28;20208;-67
2022/01/26 11:52:04;;;;;;;12.03;6.80;;;4.60;99.90;;;;;;5062258;28;20273;-66
2022/01/26 11:54:48;;;;;;;16.60;6.90;;;4.60;99.90;;;;;;5062476;28;20224;-70
2022/01/26 11:57:17;;;;;;;11.43;6.20;;;4.60;99.90;;;;;;5060926;28;20208;-70
2022/01/26 11:59:56;;;;;;;12.90;6.80;;;4.50;99.90;;;;;;5064003;28;20289;-70
2022/01/26 12:02:34;;;;;;;14.17;6.53;;;4.50;99.90;;;;;;5063997;28;20204;-70
2022/01/26 12:05:06;;;;;;;16.00;6.93;;;4.50;99.90;;;;;;5065619;28;20246;-70
2022/01/26 12:07:33;;;;;;;16.00;7.37;;;4.60;99.90;;;;;;5068255;28;20196;-70
2022/01/26 12:10:03;;;;;;;13.70;6.90;;;4.50;99.90;;;;;;5064019;28;20584;-70
2022/01/26 12:12:30;;;;;;;16.07;7.57;;;4.50;99.90;;;;;;5066582;28;20223;-70
2022/01/26 12:15:01;;;;;;;14.03;7.00;;;4.40;99.90;;;;;;5067067;28;20705;-70
2022/01/26 12:17:33;;;;;;;15.53;7.30;;;4.40;99.90;;;;;;5067927;28;20265;-70
2022/01/26 12:32:06;;;;;;;16.07;8.13;;;4.40;99.90;;;;;;5067506;28;20282;-70
2022/01/26 12:34:43;;;;;;;23.77;8.63;;;4.50;99.90;;;;;;5063682;28;20224;-68
2022/01/26 12:45:24;;;;;;;19.97;8.30;;;4.20;99.90;;;;;;5068806;28;20596;-70
2022/01/26 12:47:52;;;;;;;20.17;8.83;;;4.10;99.90;;;;;;5055401;28;20293;-69
2022/01/26 12:50:19;;;;;;;17.70;9.20;;;3.90;99.90;;;;;;5061758;28;20498;-69
2022/01/26 12:52:48;;;;;;;20.73;9.23;;;3.80;99.90;;;;;;5050247;28;20218;-70
2022/01/26 12:55:23;;;;;;;19.10;8.43;;;3.90;99.90;;;;;;5057552;28;20221;-70
2022/01/26 12:57:49;;;;;;;20.57;8.80;;;3.70;99.90;;;;;;5063847;28;20198;-69
2022/01/26 13:00:18;;;;;;;20.53;9.80;;;3.80;99.90;;;;;;5056104;28;20548;-70
2022/01/26 13:02:45;;;;;;;17.33;8.40;;;3.90;99.90;;;;;;5062027;28;20286;-69
2022/01/26 13:05:14;;;;;;;21.80;9.63;;;3.90;99.90;;;;;;5066926;28;20224;-69
2022/01/26 13:07:41;;;;;;;21.10;8.80;;;3.90;99.90;;;;;;5077082;28;20205;-69
2022/01/26 13:10:17;;;;;;;21.30;9.83;;;3.90;99.90;;;;;;5061657;28;20199;-72
2022/01/26 13:12:44;;;;;;;22.00;9.63;;;3.90;99.90;;;;;;5057746;28;20712;-69
2022/01/26 13:15:20;;;;;;;20.40;9.67;;;3.80;99.90;;;;;;5058866;28;20218;-70
2022/01/26 13:17:55;;;;;;;20.53;9.63;;;3.90;99.90;;;;;;5055182;28;20201;-71
2022/01/26 13:20:45;;;;;;;21.20;9.17;;;3.90;99.90;;;;;;5063551;28;20582;-72
2022/01/26 13:26:16;;;;;;;20.30;9.10;;;3.70;99.90;;;;;;5052583;28;20202;-71
2022/01/26 13:29:14;;;;;;;23.67;9.13;;;3.70;99.90;;;;;;5065669;28;20197;-69
2022/01/26 13:35:09;;;;;;;24.70;9.47;;;3.70;99.90;;;;;;5065997;28;20643;-70
2022/01/26 13:38:21;;;;;;;20.63;8.43;;;3.80;99.90;;;;;;5059968;28;20610;-69
2022/01/26 13:46:37;;;;;;;20.50;8.17;;;3.70;99.90;;;;;;5057375;28;20197;-69
2022/01/26 13:52:03;;;;;;;23.80;8.67;;;3.80;99.90;;;;;;5059014;28;20294;-68
2022/01/26 13:54:44;;;;;;;20.77;8.63;;;3.90;99.90;;;;;;5063749;28;20430;-68
2022/01/26 13:59:57;;;;;;;20.50;8.60;;;4.30;99.90;;;;;;5054279;28;20213;-69
2022/01/26 14:02:27;;;;;;;23.30;9.23;;;4.50;99.90;;;;;;5059658;28;20213;-69
2022/01/26 14:04:55;;;;;;;19.70;8.27;;;4.70;99.90;;;;;;5059087;28;20626;-69
2022/01/26 14:07:22;;;;;;;22.03;9.20;;;4.80;99.90;;;;;;5066925;28;20202;-67
2022/01/26 14:09:48;;;;;;;18.70;8.57;;;4.80;99.90;;;;;;5062633;28;20700;-67
2022/01/26 14:12:20;;;;;;;19.37;8.57;;;4.70;99.90;;;;;;5064396;28;20388;-69
2022/01/26 14:14:52;;;;;;;21.03;8.43;;;4.70;99.90;;;;;;5058800;28;20232;-69
2022/01/26 14:17:29;;;;;;;19.80;9.00;;;4.70;99.90;;;;;;5057251;28;20201;-69
2022/01/26 14:20:10;;;;;;;18.30;8.40;;;4.80;99.90;;;;;;5076616;28;20190;-69
2022/01/26 14:22:49;;;;;;;16.77;8.20;;;4.80;99.90;;;;;;5062572;28;20652;-68
2022/01/26 14:25:25;;;;;;;22.53;8.57;;;4.90;99.90;;;;;;5064437;28;20214;-72
2022/01/26 14:27:55;;;;;;;17.07;8.10;;;5.00;99.90;;;;;;5063094;28;20642;-71
2022/01/26 14:30:37;;;;;;;18.73;8.90;;;5.00;99.90;;;;;;5068940;28;20258;-72
2022/01/26 14:36:07;;;;;;;19.50;8.17;;;4.80;99.90;;;;;;5067435;28;20600;-70
2022/01/26 14:53:14;;;;;;;16.90;7.80;;;4.60;99.90;;;;;;5065155;28;20197;-68
2022/01/26 15:40:57;;;;;;;16.37;7.20;;;4.20;99.90;;;;;;5070004;28;20203;-70
2022/01/26 15:49:28;;;;;;;17.13;8.47;;;4.40;99.90;;;;;;5067562;28;20225;-66
2022/01/26 15:52:05;;;;;;;18.90;8.60;;;4.40;99.90;;;;;;5059785;28;20206;-67
2022/01/26 16:07:52;;;;;;;21.57;9.77;;;4.10;99.90;;;;;;5067679;28;20685;-72
2022/01/26 16:27:45;;;;;;;18.80;9.27;;;4.50;99.90;;;;;;5067655;28;20223;-72
2022/01/26 17:11:23;;;;;;;18.13;8.17;;;4.20;99.90;;;;;;5057633;28;20681;-72
2022/01/26 17:25:28;;;;;;;21.60;9.07;;;4.00;99.90;;;;;;5053996;28;20226;-72
2022/01/26 18:15:55;;;;;;;19.20;7.67;;;3.90;99.90;;;;;;5063115;28;20222;-74
2022/01/26 18:26:39;;;;;;;13.43;6.27;;;3.90;99.90;;;;;;5057912;28;20696;-75
2022/01/26 18:51:38;;;;;;;13.30;6.80;;;3.70;99.90;;;;;;5061596;28;20758;-75
2022/01/26 18:54:06;;;;;;;15.50;7.53;;;3.70;99.90;;;;;;5068617;28;20271;-73
2022/01/26 18:56:35;;;;;;;14.90;6.63;;;3.70;99.90;;;;;;5067608;28;20583;-73
2022/01/26 18:59:03;;;;;;;16.33;6.87;;;3.80;99.90;;;;;;5064651;28;20194;-74
2022/01/26 19:01:30;;;;;;;16.47;6.70;;;3.70;99.90;;;;;;5083866;28;20201;-74
2022/01/26 19:04:18;;;;;;;15.90;7.23;;;3.70;99.90;;;;;;5067756;28;20489;-73
2022/01/26 19:06:50;;;;;;;11.90;6.73;;;3.60;99.90;;;;;;5068325;28;20204;-73
2022/01/26 19:09:21;;;;;;;16.20;7.87;;;3.60;99.90;;;;;;5069958;28;20206;-73
2022/01/26 19:11:48;;;;;;;16.40;7.97;;;3.70;99.90;;;;;;5067319;28;20208;-72
2022/01/26 19:14:15;;;;;;;14.57;7.30;;;3.60;99.90;;;;;;5069772;28;20289;-72
2022/01/26 19:16:51;;;;;;;14.57;7.33;;;3.60;99.90;;;;;;5069349;28;20190;-72